sensor_id;sensor_type;location;lat;lon;timestamp;P1;durP1;ratioP1;P2;durP2;ratioP2
32800;SDS011;40572;45.552;12.072;2022-09-03T00:01:36;4.17;;;3.73;;
32800;SDS011;40572;45.552;12.072;2022-09-03T00:04:04;4.70;;;4.30;;
32800;SDS011;40572;45.552;12.072;2022-09-03T00:06:35;5.87;;;4.23;;
32800;SDS011;40572;45.552;12.072;2022-09-03T00:09:05;5.63;;;4.20;;
32800;SDS011;40572;45.552;12.072;2022-09-03T00:11:47;5.43;;;3.43;;
32800;SDS011;40572;45.552;12.072;2022-09-03T00:14:19;4.50;;;4.10;;
32800;SDS011;40572;45.552;12.072;2022-09-03T00:16:50;4.57;;;4.10;;
32800;SDS011;40572;45.552;12.072;2022-09-03T00:19:17;4.50;;;3.97;;
32800;SDS011;40572;45.552;12.072;2022-09-03T00:21:48;6.13;;;3.73;;
32800;SDS011;40572;45.552;12.072;2022-09-03T00:24:16;6.40;;;4.53;;
32800;SDS011;40572;45.552;12.072;2022-09-03T00:26:45;4.73;;;3.93;;
32800;SDS011;40572;45.552;12.072;2022-09-03T00:29:15;4.43;;;4.03;;
32800;SDS011;40572;45.552;12.072;2022-09-03T00:32:02;4.90;;;3.87;;
32800;SDS011;40572;45.552;12.072;2022-09-03T00:34:24;4.70;;;4.20;;
32800;SDS011;40572;45.552;12.072;2022-09-03T00:36:52;4.40;;;4.00;;
32800;SDS011;40572;45.552;12.072;2022-09-03T00:39:20;4.33;;;3.93;;
32800;SDS011;40572;45.552;12.072;2022-09-03T00:47:29;6.57;;;4.30;;
32800;SDS011;40572;45.552;12.072;2022-09-03T00:52:45;6.23;;;4.07;;
32800;SDS011;40572;45.552;12.072;2022-09-03T01:00:15;3.93;;;3.53;;
32800;SDS011;40572;45.552;12.072;2022-09-03T01:10:34;4.93;;;3.30;;
32800;SDS011;40572;45.552;12.072;2022-09-03T01:13:13;4.57;;;3.80;;
32800;SDS011;40572;45.552;12.072;2022-09-03T01:28:43;5.13;;;3.90;;
32800;SDS011;40572;45.552;12.072;2022-09-03T01:31:14;4.27;;;3.60;;
32800;SDS011;40572;45.552;12.072;2022-09-03T01:33:39;4.37;;;3.50;;
32800;SDS011;40572;45.552;12.072;2022-09-03T01:38:34;4.33;;;3.43;;
32800;SDS011;40572;45.552;12.072;2022-09-03T01:43:40;4.57;;;3.50;;
32800;SDS011;40572;45.552;12.072;2022-09-03T01:46:16;3.43;;;3.13;;
32800;SDS011;40572;45.552;12.072;2022-09-03T01:51:15;4.07;;;3.30;;
32800;SDS011;40572;45.552;12.072;2022-09-03T01:56:30;4.20;;;3.20;;
32800;SDS011;40572;45.552;12.072;2022-09-03T01:59:03;3.33;;;3.03;;
32800;SDS011;40572;45.552;12.072;2022-09-03T02:01:36;5.23;;;2.83;;
32800;SDS011;40572;45.552;12.072;2022-09-03T02:03:59;3.23;;;2.60;;
32800;SDS011;40572;45.552;12.072;2022-09-03T02:06:26;3.37;;;3.07;;
32800;SDS011;40572;45.552;12.072;2022-09-03T02:08:52;3.20;;;2.80;;
32800;SDS011;40572;45.552;12.072;2022-09-03T02:11:18;5.63;;;2.93;;
32800;SDS011;40572;45.552;12.072;2022-09-03T02:13:46;4.62;;;2.67;;
32800;SDS011;40572;45.552;12.072;2022-09-03T02:16:14;3.80;;;2.97;;
32800;SDS011;40572;45.552;12.072;2022-09-03T02:18:44;4.83;;;2.73;;
32800;SDS011;40572;45.552;12.072;2022-09-03T02:21:17;3.47;;;2.77;;
32800;SDS011;40572;45.552;12.072;2022-09-03T02:23:39;3.30;;;2.70;;
32800;SDS011;40572;45.552;12.072;2022-09-03T02:26:05;2.57;;;2.37;;
32800;SDS011;40572;45.552;12.072;2022-09-03T02:28:33;2.63;;;2.43;;
32800;SDS011;40572;45.552;12.072;2022-09-03T02:30:59;2.43;;;2.23;;
32800;SDS011;40572;45.552;12.072;2022-09-03T02:33:25;3.22;;;2.58;;
32800;SDS011;40572;45.552;12.072;2022-09-03T02:35:52;3.90;;;2.50;;
32800;SDS011;40572;45.552;12.072;2022-09-03T02:38:19;3.83;;;2.50;;
32800;SDS011;40572;45.552;12.072;2022-09-03T02:40:46;3.57;;;2.40;;
32800;SDS011;40572;45.552;12.072;2022-09-03T02:43:13;3.67;;;2.97;;
32800;SDS011;40572;45.552;12.072;2022-09-03T02:45:41;2.67;;;2.47;;
32800;SDS011;40572;45.552;12.072;2022-09-03T02:48:08;2.67;;;2.40;;
32800;SDS011;40572;45.552;12.072;2022-09-03T02:50:41;4.17;;;2.67;;
32800;SDS011;40572;45.552;12.072;2022-09-03T02:53:08;4.33;;;2.83;;
32800;SDS011;40572;45.552;12.072;2022-09-03T02:55:35;4.70;;;3.00;;
32800;SDS011;40572;45.552;12.072;2022-09-03T02:58:01;3.17;;;2.80;;
32800;SDS011;40572;45.552;12.072;2022-09-03T03:00:27;3.50;;;3.00;;
32800;SDS011;40572;45.552;12.072;2022-09-03T03:02:54;2.92;;;2.70;;
32800;SDS011;40572;45.552;12.072;2022-09-03T03:05:29;4.65;;;2.95;;
32800;SDS011;40572;45.552;12.072;2022-09-03T03:07:54;3.10;;;2.50;;
32800;SDS011;40572;45.552;12.072;2022-09-03T03:10:20;3.10;;;2.50;;
32800;SDS011;40572;45.552;12.072;2022-09-03T03:12:46;3.25;;;2.27;;
32800;SDS011;40572;45.552;12.072;2022-09-03T03:15:12;2.67;;;2.15;;
32800;SDS011;40572;45.552;12.072;2022-09-03T03:17:40;2.53;;;2.33;;
32800;SDS011;40572;45.552;12.072;2022-09-03T03:20:06;4.28;;;2.60;;
32800;SDS011;40572;45.552;12.072;2022-09-03T03:22:32;2.57;;;2.03;;
32800;SDS011;40572;45.552;12.072;2022-09-03T03:24:58;3.80;;;2.27;;
32800;SDS011;40572;45.552;12.072;2022-09-03T03:27:25;2.30;;;2.10;;
32800;SDS011;40572;45.552;12.072;2022-09-03T03:29:52;3.10;;;2.10;;
32800;SDS011;40572;45.552;12.072;2022-09-03T03:32:19;2.60;;;2.40;;
32800;SDS011;40572;45.552;12.072;2022-09-03T03:34:45;3.83;;;2.30;;
32800;SDS011;40572;45.552;12.072;2022-09-03T03:37:11;2.40;;;2.20;;
32800;SDS011;40572;45.552;12.072;2022-09-03T03:39:37;2.30;;;2.10;;
32800;SDS011;40572;45.552;12.072;2022-09-03T03:42:04;4.03;;;2.37;;
32800;SDS011;40572;45.552;12.072;2022-09-03T03:44:30;2.30;;;2.05;;
32800;SDS011;40572;45.552;12.072;2022-09-03T03:46:56;3.10;;;2.05;;
32800;SDS011;40572;45.552;12.072;2022-09-03T03:49:22;3.95;;;2.37;;
32800;SDS011;40572;45.552;12.072;2022-09-03T03:51:48;3.05;;;2.65;;
32800;SDS011;40572;45.552;12.072;2022-09-03T03:54:15;3.12;;;2.47;;
32800;SDS011;40572;45.552;12.072;2022-09-03T03:56:41;2.90;;;2.60;;
32800;SDS011;40572;45.552;12.072;2022-09-03T03:59:07;3.00;;;2.70;;
32800;SDS011;40572;45.552;12.072;2022-09-03T04:01:33;2.47;;;2.27;;
32800;SDS011;40572;45.552;12.072;2022-09-03T04:04:00;3.42;;;2.70;;
32800;SDS011;40572;45.552;12.072;2022-09-03T04:06:26;2.87;;;2.58;;
32800;SDS011;40572;45.552;12.072;2022-09-03T04:08:53;2.90;;;2.70;;
32800;SDS011;40572;45.552;12.072;2022-09-03T04:11:20;3.10;;;2.58;;
32800;SDS011;40572;45.552;12.072;2022-09-03T04:13:47;3.40;;;2.70;;
32800;SDS011;40572;45.552;12.072;2022-09-03T04:16:18;4.47;;;2.53;;
32800;SDS011;40572;45.552;12.072;2022-09-03T04:18:43;2.70;;;2.50;;
32800;SDS011;40572;45.552;12.072;2022-09-03T04:21:11;2.87;;;2.40;;
32800;SDS011;40572;45.552;12.072;2022-09-03T04:23:38;2.87;;;2.60;;
32800;SDS011;40572;45.552;12.072;2022-09-03T04:26:04;4.23;;;2.60;;
32800;SDS011;40572;45.552;12.072;2022-09-03T04:28:31;3.00;;;2.50;;
32800;SDS011;40572;45.552;12.072;2022-09-03T04:31:00;3.77;;;2.60;;
32800;SDS011;40572;45.552;12.072;2022-09-03T04:33:29;2.97;;;2.40;;
32800;SDS011;40572;45.552;12.072;2022-09-03T04:36:19;4.70;;;2.63;;
32800;SDS011;40572;45.552;12.072;2022-09-03T04:38:24;3.33;;;2.20;;
32800;SDS011;40572;45.552;12.072;2022-09-03T04:40:52;3.57;;;2.30;;
32800;SDS011;40572;45.552;12.072;2022-09-03T04:43:18;3.00;;;2.20;;
32800;SDS011;40572;45.552;12.072;2022-09-03T04:45:44;3.95;;;2.40;;
32800;SDS011;40572;45.552;12.072;2022-09-03T04:48:11;3.02;;;2.15;;
32800;SDS011;40572;45.552;12.072;2022-09-03T04:50:38;2.33;;;2.10;;
32800;SDS011;40572;45.552;12.072;2022-09-03T04:53:04;3.10;;;2.17;;
32800;SDS011;40572;45.552;12.072;2022-09-03T04:55:34;3.43;;;2.47;;
32800;SDS011;40572;45.552;12.072;2022-09-03T04:58:01;3.03;;;2.50;;
32800;SDS011;40572;45.552;12.072;2022-09-03T05:00:27;2.72;;;2.08;;
32800;SDS011;40572;45.552;12.072;2022-09-03T05:02:58;3.20;;;2.23;;
32800;SDS011;40572;45.552;12.072;2022-09-03T05:05:23;3.10;;;2.40;;
32800;SDS011;40572;45.552;12.072;2022-09-03T05:07:49;2.80;;;2.40;;
32800;SDS011;40572;45.552;12.072;2022-09-03T05:10:15;3.15;;;2.27;;
32800;SDS011;40572;45.552;12.072;2022-09-03T05:12:43;4.43;;;2.43;;
32800;SDS011;40572;45.552;12.072;2022-09-03T05:15:09;3.52;;;2.50;;
32800;SDS011;40572;45.552;12.072;2022-09-03T05:17:35;4.37;;;3.17;;
32800;SDS011;40572;45.552;12.072;2022-09-03T05:20:04;4.57;;;2.80;;
32800;SDS011;40572;45.552;12.072;2022-09-03T05:22:33;3.10;;;2.77;;
32800;SDS011;40572;45.552;12.072;2022-09-03T05:24:59;3.10;;;2.80;;
32800;SDS011;40572;45.552;12.072;2022-09-03T05:27:25;2.95;;;2.55;;
32800;SDS011;40572;45.552;12.072;2022-09-03T05:29:51;3.72;;;2.55;;
32800;SDS011;40572;45.552;12.072;2022-09-03T05:32:17;3.15;;;2.40;;
32800;SDS011;40572;45.552;12.072;2022-09-03T05:34:43;2.52;;;2.33;;
32800;SDS011;40572;45.552;12.072;2022-09-03T05:37:10;4.15;;;2.77;;
32800;SDS011;40572;45.552;12.072;2022-09-03T05:39:37;4.17;;;2.67;;
32800;SDS011;40572;45.552;12.072;2022-09-03T05:42:03;3.67;;;2.27;;
32800;SDS011;40572;45.552;12.072;2022-09-03T05:44:29;2.72;;;2.52;;
32800;SDS011;40572;45.552;12.072;2022-09-03T05:46:56;3.87;;;2.23;;
32800;SDS011;40572;45.552;12.072;2022-09-03T05:49:22;3.53;;;2.40;;
32800;SDS011;40572;45.552;12.072;2022-09-03T05:51:48;4.65;;;2.50;;
32800;SDS011;40572;45.552;12.072;2022-09-03T05:54:14;4.62;;;2.20;;
32800;SDS011;40572;45.552;12.072;2022-09-03T05:56:41;3.47;;;2.15;;
32800;SDS011;40572;45.552;12.072;2022-09-03T05:59:07;2.50;;;2.30;;
32800;SDS011;40572;45.552;12.072;2022-09-03T06:01:35;2.93;;;2.53;;
32800;SDS011;40572;45.552;12.072;2022-09-03T06:04:02;2.70;;;2.50;;
32800;SDS011;40572;45.552;12.072;2022-09-03T06:06:30;2.77;;;2.40;;
32800;SDS011;40572;45.552;12.072;2022-09-03T06:08:57;4.77;;;2.50;;
32800;SDS011;40572;45.552;12.072;2022-09-03T06:11:24;3.20;;;2.47;;
32800;SDS011;40572;45.552;12.072;2022-09-03T06:13:54;3.17;;;2.50;;
32800;SDS011;40572;45.552;12.072;2022-09-03T06:16:21;3.70;;;2.30;;
32800;SDS011;40572;45.552;12.072;2022-09-03T06:18:47;4.00;;;2.45;;
32800;SDS011;40572;45.552;12.072;2022-09-03T06:21:14;2.37;;;2.23;;
32800;SDS011;40572;45.552;12.072;2022-09-03T06:23:40;3.77;;;2.47;;
32800;SDS011;40572;45.552;12.072;2022-09-03T06:26:11;5.60;;;4.30;;
32800;SDS011;40572;45.552;12.072;2022-09-03T06:28:35;2.90;;;2.70;;
32800;SDS011;40572;45.552;12.072;2022-09-03T06:31:03;3.33;;;2.90;;
32800;SDS011;40572;45.552;12.072;2022-09-03T06:33:30;2.93;;;2.40;;
32800;SDS011;40572;45.552;12.072;2022-09-03T06:35:58;3.43;;;2.60;;
32800;SDS011;40572;45.552;12.072;2022-09-03T06:38:25;4.37;;;2.60;;
32800;SDS011;40572;45.552;12.072;2022-09-03T06:40:57;4.20;;;2.60;;
32800;SDS011;40572;45.552;12.072;2022-09-03T06:43:19;4.27;;;2.63;;
32800;SDS011;40572;45.552;12.072;2022-09-03T06:46:02;3.12;;;2.65;;
32800;SDS011;40572;45.552;12.072;2022-09-03T06:48:29;3.57;;;3.27;;
32800;SDS011;40572;45.552;12.072;2022-09-03T06:50:56;5.27;;;3.67;;
32800;SDS011;40572;45.552;12.072;2022-09-03T06:53:23;4.70;;;3.70;;
32800;SDS011;40572;45.552;12.072;2022-09-03T06:55:56;5.47;;;5.07;;
32800;SDS011;40572;45.552;12.072;2022-09-03T06:58:20;6.13;;;5.57;;
32800;SDS011;40572;45.552;12.072;2022-09-03T07:00:48;6.77;;;6.17;;
32800;SDS011;40572;45.552;12.072;2022-09-03T07:03:14;6.00;;;5.60;;
32800;SDS011;40572;45.552;12.072;2022-09-03T07:05:42;5.80;;;5.40;;
32800;SDS011;40572;45.552;12.072;2022-09-03T07:08:09;6.90;;;6.50;;
32800;SDS011;40572;45.552;12.072;2022-09-03T07:10:36;5.90;;;5.50;;
32800;SDS011;40572;45.552;12.072;2022-09-03T07:13:02;6.60;;;6.30;;
32800;SDS011;40572;45.552;12.072;2022-09-03T07:15:28;7.80;;;7.20;;
32800;SDS011;40572;45.552;12.072;2022-09-03T07:17:55;7.90;;;7.40;;
32800;SDS011;40572;45.552;12.072;2022-09-03T07:20:21;8.13;;;7.72;;
32800;SDS011;40572;45.552;12.072;2022-09-03T07:22:47;7.97;;;7.58;;
32800;SDS011;40572;45.552;12.072;2022-09-03T07:25:13;9.40;;;8.90;;
32800;SDS011;40572;45.552;12.072;2022-09-03T07:27:40;9.95;;;9.28;;
32800;SDS011;40572;45.552;12.072;2022-09-03T07:30:06;9.90;;;9.30;;
32800;SDS011;40572;45.552;12.072;2022-09-03T07:32:34;9.43;;;8.93;;
32800;SDS011;40572;45.552;12.072;2022-09-03T07:35:02;9.57;;;9.07;;
32800;SDS011;40572;45.552;12.072;2022-09-03T07:37:29;10.10;;;9.70;;
32800;SDS011;40572;45.552;12.072;2022-09-03T07:39:56;9.28;;;8.80;;
32800;SDS011;40572;45.552;12.072;2022-09-03T07:42:22;8.73;;;8.23;;
32800;SDS011;40572;45.552;12.072;2022-09-03T07:44:48;14.38;;;13.25;;
32800;SDS011;40572;45.552;12.072;2022-09-03T07:47:14;8.40;;;7.90;;
32800;SDS011;40572;45.552;12.072;2022-09-03T07:49:42;8.10;;;7.70;;
32800;SDS011;40572;45.552;12.072;2022-09-03T07:52:08;7.80;;;7.40;;
32800;SDS011;40572;45.552;12.072;2022-09-03T07:54:35;7.40;;;6.90;;
32800;SDS011;40572;45.552;12.072;2022-09-03T07:57:01;7.23;;;6.73;;
32800;SDS011;40572;45.552;12.072;2022-09-03T07:59:27;6.97;;;6.47;;
32800;SDS011;40572;45.552;12.072;2022-09-03T08:01:53;5.10;;;4.70;;
32800;SDS011;40572;45.552;12.072;2022-09-03T08:04:20;5.97;;;5.42;;
32800;SDS011;40572;45.552;12.072;2022-09-03T08:06:46;5.93;;;5.43;;
32800;SDS011;40572;45.552;12.072;2022-09-03T08:09:13;5.63;;;5.17;;
32800;SDS011;40572;45.552;12.072;2022-09-03T08:11:40;4.70;;;4.40;;
32800;SDS011;40572;45.552;12.072;2022-09-03T08:14:09;5.00;;;4.63;;
32800;SDS011;40572;45.552;12.072;2022-09-03T08:16:36;6.70;;;4.90;;
32800;SDS011;40572;45.552;12.072;2022-09-03T08:19:03;3.50;;;3.27;;
32800;SDS011;40572;45.552;12.072;2022-09-03T08:21:30;3.80;;;3.60;;
32800;SDS011;40572;45.552;12.072;2022-09-03T08:23:56;3.67;;;2.97;;
32800;SDS011;40572;45.552;12.072;2022-09-03T08:26:30;3.00;;;2.73;;
32800;SDS011;40572;45.552;12.072;2022-09-03T08:28:56;2.90;;;2.70;;
32800;SDS011;40572;45.552;12.072;2022-09-03T08:31:23;2.50;;;2.30;;
32800;SDS011;40572;45.552;12.072;2022-09-03T08:33:50;2.30;;;2.10;;
32800;SDS011;40572;45.552;12.072;2022-09-03T08:36:17;3.10;;;2.40;;
32800;SDS011;40572;45.552;12.072;2022-09-03T08:38:44;2.70;;;2.37;;
32800;SDS011;40572;45.552;12.072;2022-09-03T08:41:15;2.50;;;2.13;;
32800;SDS011;40572;45.552;12.072;2022-09-03T08:43:49;2.27;;;2.03;;
32800;SDS011;40572;45.552;12.072;2022-09-03T08:46:08;3.50;;;2.30;;
32800;SDS011;40572;45.552;12.072;2022-09-03T08:48:34;3.65;;;2.20;;
32800;SDS011;40572;45.552;12.072;2022-09-03T08:51:00;3.62;;;2.40;;
32800;SDS011;40572;45.552;12.072;2022-09-03T08:55:58;2.77;;;1.90;;
32800;SDS011;40572;45.552;12.072;2022-09-03T08:58:26;3.53;;;2.17;;
32800;SDS011;40572;45.552;12.072;2022-09-03T09:03:27;2.37;;;1.90;;
32800;SDS011;40572;45.552;12.072;2022-09-03T09:05:58;3.93;;;2.03;;
32800;SDS011;40572;45.552;12.072;2022-09-03T09:08:26;2.30;;;2.10;;
32800;SDS011;40572;45.552;12.072;2022-09-03T09:10:58;2.70;;;1.90;;
32800;SDS011;40572;45.552;12.072;2022-09-03T09:13:26;2.27;;;2.10;;
32800;SDS011;40572;45.552;12.072;2022-09-03T09:16:02;3.87;;;2.17;;
32800;SDS011;40572;45.552;12.072;2022-09-03T09:21:16;1.80;;;1.70;;
32800;SDS011;40572;45.552;12.072;2022-09-03T09:23:45;2.13;;;1.60;;
32800;SDS011;40572;45.552;12.072;2022-09-03T09:26:17;2.07;;;1.87;;
32800;SDS011;40572;45.552;12.072;2022-09-03T09:28:39;2.07;;;1.87;;
32800;SDS011;40572;45.552;12.072;2022-09-03T09:31:11;1.93;;;1.80;;
32800;SDS011;40572;45.552;12.072;2022-09-03T09:33:40;1.67;;;1.57;;
32800;SDS011;40572;45.552;12.072;2022-09-03T09:36:11;2.13;;;1.90;;
32800;SDS011;40572;45.552;12.072;2022-09-03T09:38:39;3.43;;;1.90;;
32800;SDS011;40572;45.552;12.072;2022-09-03T09:41:09;1.70;;;1.60;;
32800;SDS011;40572;45.552;12.072;2022-09-03T09:43:36;2.00;;;1.60;;
32800;SDS011;40572;45.552;12.072;2022-09-03T09:46:14;4.07;;;1.80;;
32800;SDS011;40572;45.552;12.072;2022-09-03T09:48:46;1.77;;;1.67;;
32800;SDS011;40572;45.552;12.072;2022-09-03T09:51:16;1.70;;;1.60;;
32800;SDS011;40572;45.552;12.072;2022-09-03T09:53:41;2.43;;;1.90;;
32800;SDS011;40572;45.552;12.072;2022-09-03T09:56:07;1.95;;;1.85;;
32800;SDS011;40572;45.552;12.072;2022-09-03T09:58:34;1.90;;;1.80;;
32800;SDS011;40572;45.552;12.072;2022-09-03T10:01:10;3.57;;;2.40;;
32800;SDS011;40572;45.552;12.072;2022-09-03T10:03:55;1.73;;;1.63;;
32800;SDS011;40572;45.552;12.072;2022-09-03T10:06:18;3.20;;;1.80;;
32800;SDS011;40572;45.552;12.072;2022-09-03T10:09:11;3.13;;;1.90;;
32800;SDS011;40572;45.552;12.072;2022-09-03T10:11:39;2.13;;;1.93;;
32800;SDS011;40572;45.552;12.072;2022-09-03T10:14:08;2.23;;;1.53;;
32800;SDS011;40572;45.552;12.072;2022-09-03T10:16:34;1.87;;;1.77;;
32800;SDS011;40572;45.552;12.072;2022-09-03T10:19:03;2.37;;;2.03;;
32800;SDS011;40572;45.552;12.072;2022-09-03T10:26:52;3.40;;;1.80;;
32800;SDS011;40572;45.552;12.072;2022-09-03T10:29:19;3.57;;;1.63;;
32800;SDS011;40572;45.552;12.072;2022-09-03T10:32:01;3.30;;;1.90;;
32800;SDS011;40572;45.552;12.072;2022-09-03T10:45:17;2.90;;;1.80;;
32800;SDS011;40572;45.552;12.072;2022-09-03T10:50:43;2.70;;;1.77;;
32800;SDS011;40572;45.552;12.072;2022-09-03T10:58:21;3.47;;;2.10;;
32800;SDS011;40572;45.552;12.072;2022-09-03T11:00:46;2.87;;;1.60;;
32800;SDS011;40572;45.552;12.072;2022-09-03T11:05:40;2.20;;;1.90;;
32800;SDS011;40572;45.552;12.072;2022-09-03T11:10:53;2.17;;;1.93;;
32800;SDS011;40572;45.552;12.072;2022-09-03T11:13:20;2.90;;;1.93;;
32800;SDS011;40572;45.552;12.072;2022-09-03T11:15:54;2.67;;;2.00;;
32800;SDS011;40572;45.552;12.072;2022-09-03T11:18:28;2.53;;;1.80;;
32800;SDS011;40572;45.552;12.072;2022-09-03T11:20:56;4.70;;;2.00;;
32800;SDS011;40572;45.552;12.072;2022-09-03T11:23:25;1.97;;;1.80;;
32800;SDS011;40572;45.552;12.072;2022-09-03T11:25:56;1.83;;;1.60;;
32800;SDS011;40572;45.552;12.072;2022-09-03T11:31:19;2.37;;;1.70;;
32800;SDS011;40572;45.552;12.072;2022-09-03T11:33:45;3.03;;;1.60;;
32800;SDS011;40572;45.552;12.072;2022-09-03T11:36:11;3.00;;;1.93;;
32800;SDS011;40572;45.552;12.072;2022-09-03T11:38:38;1.60;;;1.50;;
32800;SDS011;40572;45.552;12.072;2022-09-03T11:41:12;2.43;;;1.70;;
32800;SDS011;40572;45.552;12.072;2022-09-03T11:43:39;2.10;;;1.90;;
32800;SDS011;40572;45.552;12.072;2022-09-03T11:46:08;3.07;;;1.70;;
32800;SDS011;40572;45.552;12.072;2022-09-03T11:48:36;2.07;;;1.97;;
32800;SDS011;40572;45.552;12.072;2022-09-03T11:51:03;1.80;;;1.70;;
32800;SDS011;40572;45.552;12.072;2022-09-03T11:53:33;1.82;;;1.60;;
32800;SDS011;40572;45.552;12.072;2022-09-03T11:56:00;1.93;;;1.70;;
32800;SDS011;40572;45.552;12.072;2022-09-03T11:58:31;2.53;;;1.80;;
32800;SDS011;40572;45.552;12.072;2022-09-03T12:01:03;2.83;;;1.90;;
32800;SDS011;40572;45.552;12.072;2022-09-03T12:03:52;2.07;;;1.70;;
32800;SDS011;40572;45.552;12.072;2022-09-03T12:06:08;2.13;;;1.63;;
32800;SDS011;40572;45.552;12.072;2022-09-03T12:13:59;3.17;;;1.90;;
32800;SDS011;40572;45.552;12.072;2022-09-03T12:16:24;2.10;;;1.90;;
32800;SDS011;40572;45.552;12.072;2022-09-03T12:18:49;3.43;;;1.70;;
32800;SDS011;40572;45.552;12.072;2022-09-03T12:21:17;4.03;;;2.40;;
32800;SDS011;40572;45.552;12.072;2022-09-03T12:23:45;2.65;;;1.52;;
32800;SDS011;40572;45.552;12.072;2022-09-03T12:26:14;2.67;;;1.90;;
32800;SDS011;40572;45.552;12.072;2022-09-03T12:28:41;2.40;;;1.63;;
32800;SDS011;40572;45.552;12.072;2022-09-03T12:31:18;1.90;;;1.60;;
32800;SDS011;40572;45.552;12.072;2022-09-03T12:33:40;1.70;;;1.60;;
32800;SDS011;40572;45.552;12.072;2022-09-03T12:36:07;2.10;;;1.70;;
32800;SDS011;40572;45.552;12.072;2022-09-03T12:38:33;1.90;;;1.67;;
32800;SDS011;40572;45.552;12.072;2022-09-03T12:41:00;2.00;;;1.70;;
32800;SDS011;40572;45.552;12.072;2022-09-03T12:43:27;2.30;;;1.50;;
32800;SDS011;40572;45.552;12.072;2022-09-03T12:45:53;1.90;;;1.70;;
32800;SDS011;40572;45.552;12.072;2022-09-03T12:48:20;1.90;;;1.60;;
32800;SDS011;40572;45.552;12.072;2022-09-03T12:50:46;1.97;;;1.60;;
32800;SDS011;40572;45.552;12.072;2022-09-03T12:53:13;2.10;;;1.90;;
32800;SDS011;40572;45.552;12.072;2022-09-03T12:55:50;2.57;;;1.60;;
32800;SDS011;40572;45.552;12.072;2022-09-03T13:00:47;2.13;;;1.60;;
32800;SDS011;40572;45.552;12.072;2022-09-03T13:03:18;1.83;;;1.70;;
32800;SDS011;40572;45.552;12.072;2022-09-03T13:05:47;2.07;;;1.87;;
32800;SDS011;40572;45.552;12.072;2022-09-03T13:08:24;3.63;;;1.90;;
32800;SDS011;40572;45.552;12.072;2022-09-03T13:10:41;2.77;;;1.70;;
32800;SDS011;40572;45.552;12.072;2022-09-03T13:18:41;3.10;;;1.53;;
32800;SDS011;40572;45.552;12.072;2022-09-03T13:21:08;2.47;;;1.70;;
32800;SDS011;40572;45.552;12.072;2022-09-03T13:26:19;3.27;;;1.57;;
32800;SDS011;40572;45.552;12.072;2022-09-03T13:36:54;2.20;;;1.80;;
32800;SDS011;40572;45.552;12.072;2022-09-03T13:39:27;4.10;;;1.93;;
32800;SDS011;40572;45.552;12.072;2022-09-03T13:41:54;4.63;;;1.60;;
32800;SDS011;40572;45.552;12.072;2022-09-03T13:46:53;1.77;;;1.67;;
32800;SDS011;40572;45.552;12.072;2022-09-03T13:49:23;2.03;;;1.70;;
32800;SDS011;40572;45.552;12.072;2022-09-03T13:52:07;1.95;;;1.70;;
32800;SDS011;40572;45.552;12.072;2022-09-03T13:54:34;1.93;;;1.50;;
32800;SDS011;40572;45.552;12.072;2022-09-03T13:57:21;1.57;;;1.47;;
32800;SDS011;40572;45.552;12.072;2022-09-03T13:59:51;1.60;;;1.50;;
32800;SDS011;40572;45.552;12.072;2022-09-03T14:02:31;2.33;;;1.40;;
32800;SDS011;40572;45.552;12.072;2022-09-03T14:05:05;1.70;;;1.60;;
32800;SDS011;40572;45.552;12.072;2022-09-03T14:07:41;3.30;;;1.60;;
32800;SDS011;40572;45.552;12.072;2022-09-03T14:10:14;2.27;;;1.70;;
32800;SDS011;40572;45.552;12.072;2022-09-03T14:12:43;2.60;;;1.63;;
32800;SDS011;40572;45.552;12.072;2022-09-03T14:15:16;2.17;;;2.00;;
32800;SDS011;40572;45.552;12.072;2022-09-03T14:25:32;2.10;;;1.63;;
32800;SDS011;40572;45.552;12.072;2022-09-03T14:30:43;3.13;;;1.60;;
32800;SDS011;40572;45.552;12.072;2022-09-03T14:40:48;1.93;;;1.50;;
32800;SDS011;40572;45.552;12.072;2022-09-03T14:43:17;1.87;;;1.77;;
32800;SDS011;40572;45.552;12.072;2022-09-03T14:48:19;1.80;;;1.60;;
32800;SDS011;40572;45.552;12.072;2022-09-03T15:01:28;3.53;;;1.80;;
32800;SDS011;40572;45.552;12.072;2022-09-03T15:06:36;1.73;;;1.53;;
32800;SDS011;40572;45.552;12.072;2022-09-03T15:14:34;3.00;;;1.50;;
32800;SDS011;40572;45.552;12.072;2022-09-03T15:27:11;3.43;;;1.70;;
32800;SDS011;40572;45.552;12.072;2022-09-03T15:29:39;2.80;;;1.47;;
32800;SDS011;40572;45.552;12.072;2022-09-03T15:37:22;2.13;;;1.70;;
32800;SDS011;40572;45.552;12.072;2022-09-03T15:39:56;2.43;;;1.47;;
32800;SDS011;40572;45.552;12.072;2022-09-03T15:42:17;1.70;;;1.60;;
32800;SDS011;40572;45.552;12.072;2022-09-03T15:44:47;1.80;;;1.70;;
32800;SDS011;40572;45.552;12.072;2022-09-03T15:49:47;1.80;;;1.70;;
32800;SDS011;40572;45.552;12.072;2022-09-03T15:52:29;2.03;;;1.93;;
32800;SDS011;40572;45.552;12.072;2022-09-03T15:57:39;3.70;;;1.60;;
32800;SDS011;40572;45.552;12.072;2022-09-03T16:05:15;1.40;;;1.30;;
32800;SDS011;40572;45.552;12.072;2022-09-03T16:10:12;1.93;;;1.80;;
32800;SDS011;40572;45.552;12.072;2022-09-03T16:12:44;2.00;;;1.70;;
32800;SDS011;40572;45.552;12.072;2022-09-03T16:20:31;3.08;;;1.70;;
32800;SDS011;40572;45.552;12.072;2022-09-03T16:22:55;2.50;;;1.50;;
32800;SDS011;40572;45.552;12.072;2022-09-03T16:25:23;1.90;;;1.47;;
32800;SDS011;40572;45.552;12.072;2022-09-03T16:27:54;1.67;;;1.40;;
32800;SDS011;40572;45.552;12.072;2022-09-03T16:30:32;2.30;;;1.73;;
32800;SDS011;40572;45.552;12.072;2022-09-03T16:35:30;1.53;;;1.40;;
32800;SDS011;40572;45.552;12.072;2022-09-03T16:45:34;1.80;;;1.70;;
32800;SDS011;40572;45.552;12.072;2022-09-03T16:50:46;2.03;;;1.57;;
32800;SDS011;40572;45.552;12.072;2022-09-03T16:53:15;2.07;;;1.50;;
32800;SDS011;40572;45.552;12.072;2022-09-03T17:06:07;4.90;;;1.70;;
32800;SDS011;40572;45.552;12.072;2022-09-03T17:16:44;2.50;;;1.40;;
32800;SDS011;40572;45.552;12.072;2022-09-03T17:27:02;2.77;;;1.60;;
32800;SDS011;40572;45.552;12.072;2022-09-03T17:29:30;1.90;;;1.70;;
32800;SDS011;40572;45.552;12.072;2022-09-03T17:34:44;2.27;;;1.70;;
32800;SDS011;40572;45.552;12.072;2022-09-03T17:45:13;4.83;;;1.50;;
32800;SDS011;40572;45.552;12.072;2022-09-03T17:50:19;2.60;;;1.90;;
32800;SDS011;40572;45.552;12.072;2022-09-03T17:52:55;1.80;;;1.70;;
32800;SDS011;40572;45.552;12.072;2022-09-03T17:55:22;1.80;;;1.70;;
32800;SDS011;40572;45.552;12.072;2022-09-03T17:57:56;2.03;;;1.73;;
32800;SDS011;40572;45.552;12.072;2022-09-03T18:00:27;3.03;;;1.53;;
32800;SDS011;40572;45.552;12.072;2022-09-03T18:02:54;1.60;;;1.50;;
32800;SDS011;40572;45.552;12.072;2022-09-03T18:05:21;2.83;;;1.90;;
32800;SDS011;40572;45.552;12.072;2022-09-03T18:08:03;3.37;;;1.80;;
32800;SDS011;40572;45.552;12.072;2022-09-03T18:18:31;1.70;;;1.60;;
32800;SDS011;40572;45.552;12.072;2022-09-03T18:20:58;3.47;;;1.87;;
32800;SDS011;40572;45.552;12.072;2022-09-03T18:23:55;2.90;;;2.13;;
32800;SDS011;40572;45.552;12.072;2022-09-03T18:26:42;2.70;;;2.37;;
32800;SDS011;40572;45.552;12.072;2022-09-03T18:29:31;4.60;;;2.80;;
32800;SDS011;40572;45.552;12.072;2022-09-03T18:32:16;4.27;;;2.30;;
32800;SDS011;40572;45.552;12.072;2022-09-03T18:35:00;2.97;;;2.07;;
32800;SDS011;40572;45.552;12.072;2022-09-03T18:37:45;2.83;;;2.37;;
32800;SDS011;40572;45.552;12.072;2022-09-03T18:40:32;3.33;;;2.70;;
32800;SDS011;40572;45.552;12.072;2022-09-03T18:43:19;3.57;;;2.23;;
32800;SDS011;40572;45.552;12.072;2022-09-03T18:46:08;2.90;;;2.10;;
32800;SDS011;40572;45.552;12.072;2022-09-03T18:52:27;3.90;;;3.00;;